Weather at Mohammadabad Airport

Public forecast

Using degrees Celsius for public forecast. Weather courtesy of forecast.io.

Closest aviation weather report (METAR) to Mohammadabad Airport

Report is more than 6 hours old.

Closest report is Bareilly Air Force Station, 66.4 nm (123.0 km) N.

2024/05/18 01:30 (retrieved 2 days ago)

VIBY 180130Z 10003KT 5000 HZ FEW030 28/21 Q1003 NOSIG

Closest aviation forecast (TAF) to Mohammadabad Airport

Closest forecast is Bareilly Air Force Station, 66.4 nm (123.0 km) N.

2024/05/20 06:00 (retrieved 1 hour ago)

TAF VIBY 200330Z 2006/2018 10008KT 6000 NSC TEMPO 2008/2010 FEW030 FE030TCU SCT100 BECMG 2010/2012 28008KT